sensor_id;sensor_type;location;lat;lon;timestamp;P1;durP1;ratioP1;P2;durP2;ratioP2
40449;SDS011;41787;53.570;10.032;2023-05-07T00:00:51;10.50;;;7.55;;
40449;SDS011;41787;53.570;10.032;2023-05-07T00:03:17;10.93;;;6.55;;
40449;SDS011;41787;53.570;10.032;2023-05-07T00:05:44;8.23;;;5.88;;
40449;SDS011;41787;53.570;10.032;2023-05-07T00:08:10;10.35;;;7.15;;
40449;SDS011;41787;53.570;10.032;2023-05-07T00:10:36;9.88;;;7.00;;
40449;SDS011;41787;53.570;10.032;2023-05-07T00:13:02;10.75;;;6.95;;
40449;SDS011;41787;53.570;10.032;2023-05-07T00:15:28;12.57;;;6.97;;
40449;SDS011;41787;53.570;10.032;2023-05-07T00:17:55;11.38;;;7.68;;
40449;SDS011;41787;53.570;10.032;2023-05-07T00:20:21;10.15;;;6.80;;
40449;SDS011;41787;53.570;10.032;2023-05-07T00:22:47;9.70;;;7.15;;
40449;SDS011;41787;53.570;10.032;2023-05-07T00:25:12;11.02;;;7.22;;
40449;SDS011;41787;53.570;10.032;2023-05-07T00:27:38;13.38;;;7.97;;
40449;SDS011;41787;53.570;10.032;2023-05-07T00:30:05;11.40;;;6.93;;
40449;SDS011;41787;53.570;10.032;2023-05-07T00:32:31;12.77;;;7.45;;
40449;SDS011;41787;53.570;10.032;2023-05-07T00:34:57;11.32;;;8.25;;
40449;SDS011;41787;53.570;10.032;2023-05-07T00:37:23;10.25;;;7.13;;
40449;SDS011;41787;53.570;10.032;2023-05-07T00:39:48;10.20;;;6.30;;
40449;SDS011;41787;53.570;10.032;2023-05-07T00:42:14;10.40;;;7.03;;
40449;SDS011;41787;53.570;10.032;2023-05-07T00:44:41;11.25;;;7.55;;
40449;SDS011;41787;53.570;10.032;2023-05-07T00:47:07;12.50;;;7.03;;
40449;SDS011;41787;53.570;10.032;2023-05-07T00:49:35;13.00;;;6.82;;
40449;SDS011;41787;53.570;10.032;2023-05-07T00:54:28;12.63;;;6.60;;
40449;SDS011;41787;53.570;10.032;2023-05-07T00:56:54;10.68;;;7.10;;
40449;SDS011;41787;53.570;10.032;2023-05-07T00:59:20;10.95;;;6.93;;
40449;SDS011;41787;53.570;10.032;2023-05-07T01:01:46;10.68;;;6.85;;
40449;SDS011;41787;53.570;10.032;2023-05-07T01:04:12;14.00;;;7.72;;
40449;SDS011;41787;53.570;10.032;2023-05-07T01:06:38;12.02;;;7.30;;
40449;SDS011;41787;53.570;10.032;2023-05-07T01:09:04;13.18;;;7.35;;
40449;SDS011;41787;53.570;10.032;2023-05-07T01:11:30;11.70;;;7.00;;
40449;SDS011;41787;53.570;10.032;2023-05-07T01:13:57;10.95;;;7.22;;
40449;SDS011;41787;53.570;10.032;2023-05-07T01:16:24;9.90;;;6.47;;
40449;SDS011;41787;53.570;10.032;2023-05-07T01:18:50;7.90;;;5.50;;
40449;SDS011;41787;53.570;10.032;2023-05-07T01:21:16;9.32;;;6.35;;
40449;SDS011;41787;53.570;10.032;2023-05-07T01:23:43;11.13;;;6.47;;
40449;SDS011;41787;53.570;10.032;2023-05-07T01:26:10;7.47;;;5.50;;
40449;SDS011;41787;53.570;10.032;2023-05-07T01:28:36;9.38;;;5.95;;
40449;SDS011;41787;53.570;10.032;2023-05-07T01:31:02;9.50;;;5.22;;
40449;SDS011;41787;53.570;10.032;2023-05-07T01:33:29;8.27;;;5.90;;
40449;SDS011;41787;53.570;10.032;2023-05-07T01:35:57;11.00;;;6.72;;
40449;SDS011;41787;53.570;10.032;2023-05-07T01:38:25;10.15;;;6.28;;
40449;SDS011;41787;53.570;10.032;2023-05-07T01:40:51;8.20;;;5.68;;
40449;SDS011;41787;53.570;10.032;2023-05-07T01:43:16;8.05;;;5.82;;
40449;SDS011;41787;53.570;10.032;2023-05-07T01:45:43;9.45;;;5.72;;
40449;SDS011;41787;53.570;10.032;2023-05-07T01:48:09;7.80;;;5.18;;
40449;SDS011;41787;53.570;10.032;2023-05-07T01:50:35;9.70;;;6.18;;
40449;SDS011;41787;53.570;10.032;2023-05-07T01:53:02;8.20;;;5.63;;
40449;SDS011;41787;53.570;10.032;2023-05-07T01:55:28;10.90;;;6.10;;
40449;SDS011;41787;53.570;10.032;2023-05-07T01:57:54;9.82;;;6.13;;
40449;SDS011;41787;53.570;10.032;2023-05-07T02:00:20;8.43;;;5.78;;
40449;SDS011;41787;53.570;10.032;2023-05-07T02:02:46;8.68;;;6.00;;
40449;SDS011;41787;53.570;10.032;2023-05-07T02:05:12;7.03;;;5.60;;
40449;SDS011;41787;53.570;10.032;2023-05-07T02:07:38;8.85;;;6.30;;
40449;SDS011;41787;53.570;10.032;2023-05-07T02:10:04;7.97;;;6.03;;
40449;SDS011;41787;53.570;10.032;2023-05-07T02:12:31;8.93;;;5.90;;
40449;SDS011;41787;53.570;10.032;2023-05-07T02:14:57;8.50;;;5.65;;
40449;SDS011;41787;53.570;10.032;2023-05-07T02:17:23;8.98;;;5.97;;
40449;SDS011;41787;53.570;10.032;2023-05-07T02:19:48;9.95;;;6.43;;
40449;SDS011;41787;53.570;10.032;2023-05-07T02:22:14;9.60;;;5.97;;
40449;SDS011;41787;53.570;10.032;2023-05-07T02:24:40;8.25;;;5.90;;
40449;SDS011;41787;53.570;10.032;2023-05-07T02:27:06;8.60;;;5.22;;
40449;SDS011;41787;53.570;10.032;2023-05-07T02:29:32;9.82;;;6.13;;
40449;SDS011;41787;53.570;10.032;2023-05-07T02:31:58;8.05;;;4.80;;
40449;SDS011;41787;53.570;10.032;2023-05-07T02:34:24;8.75;;;5.35;;
40449;SDS011;41787;53.570;10.032;2023-05-07T02:36:50;9.32;;;4.97;;
40449;SDS011;41787;53.570;10.032;2023-05-07T02:39:16;6.82;;;4.90;;
40449;SDS011;41787;53.570;10.032;2023-05-07T02:41:42;7.13;;;4.90;;
40449;SDS011;41787;53.570;10.032;2023-05-07T02:44:08;10.05;;;5.38;;
40449;SDS011;41787;53.570;10.032;2023-05-07T02:46:34;9.98;;;5.97;;
40449;SDS011;41787;53.570;10.032;2023-05-07T02:49:00;8.40;;;5.30;;
40449;SDS011;41787;53.570;10.032;2023-05-07T02:51:26;10.40;;;5.57;;
40449;SDS011;41787;53.570;10.032;2023-05-07T02:53:52;9.35;;;5.55;;
40449;SDS011;41787;53.570;10.032;2023-05-07T02:56:18;8.65;;;4.82;;
40449;SDS011;41787;53.570;10.032;2023-05-07T02:58:44;11.07;;;5.55;;
40449;SDS011;41787;53.570;10.032;2023-05-07T03:01:10;10.57;;;5.25;;
40449;SDS011;41787;53.570;10.032;2023-05-07T03:03:37;8.88;;;5.75;;
40449;SDS011;41787;53.570;10.032;2023-05-07T03:06:03;10.80;;;6.35;;
40449;SDS011;41787;53.570;10.032;2023-05-07T03:08:29;11.48;;;6.40;;
40449;SDS011;41787;53.570;10.032;2023-05-07T03:10:54;11.13;;;6.30;;
40449;SDS011;41787;53.570;10.032;2023-05-07T03:13:20;9.25;;;5.68;;
40449;SDS011;41787;53.570;10.032;2023-05-07T03:15:46;8.40;;;5.22;;
40449;SDS011;41787;53.570;10.032;2023-05-07T03:18:12;10.52;;;6.75;;
40449;SDS011;41787;53.570;10.032;2023-05-07T03:20:38;9.43;;;6.72;;
40449;SDS011;41787;53.570;10.032;2023-05-07T03:23:04;6.55;;;4.60;;
40449;SDS011;41787;53.570;10.032;2023-05-07T03:25:31;14.15;;;6.35;;
40449;SDS011;41787;53.570;10.032;2023-05-07T03:27:57;11.35;;;7.10;;
40449;SDS011;41787;53.570;10.032;2023-05-07T03:30:23;9.70;;;6.25;;
40449;SDS011;41787;53.570;10.032;2023-05-07T03:32:49;8.93;;;6.13;;
40449;SDS011;41787;53.570;10.032;2023-05-07T03:35:15;11.95;;;6.75;;
40449;SDS011;41787;53.570;10.032;2023-05-07T03:37:41;10.82;;;7.10;;
40449;SDS011;41787;53.570;10.032;2023-05-07T03:40:08;11.27;;;6.97;;
40449;SDS011;41787;53.570;10.032;2023-05-07T03:42:35;9.05;;;6.40;;
40449;SDS011;41787;53.570;10.032;2023-05-07T03:45:01;10.50;;;6.65;;
40449;SDS011;41787;53.570;10.032;2023-05-07T03:47:27;10.32;;;7.05;;
40449;SDS011;41787;53.570;10.032;2023-05-07T03:49:53;10.23;;;6.22;;
40449;SDS011;41787;53.570;10.032;2023-05-07T03:52:19;8.63;;;5.38;;
40449;SDS011;41787;53.570;10.032;2023-05-07T03:54:49;7.80;;;5.78;;
40449;SDS011;41787;53.570;10.032;2023-05-07T03:57:15;8.73;;;5.80;;
40449;SDS011;41787;53.570;10.032;2023-05-07T03:59:41;7.82;;;5.50;;
40449;SDS011;41787;53.570;10.032;2023-05-07T04:02:07;7.45;;;5.28;;
40449;SDS011;41787;53.570;10.032;2023-05-07T04:04:33;10.45;;;5.50;;
40449;SDS011;41787;53.570;10.032;2023-05-07T04:06:59;5.97;;;4.40;;
40449;SDS011;41787;53.570;10.032;2023-05-07T04:09:25;8.05;;;5.80;;
40449;SDS011;41787;53.570;10.032;2023-05-07T04:11:51;9.05;;;5.85;;
40449;SDS011;41787;53.570;10.032;2023-05-07T04:14:17;8.73;;;5.70;;
40449;SDS011;41787;53.570;10.032;2023-05-07T04:16:43;9.65;;;6.45;;
40449;SDS011;41787;53.570;10.032;2023-05-07T04:19:09;10.80;;;6.20;;
40449;SDS011;41787;53.570;10.032;2023-05-07T04:21:35;9.95;;;6.13;;
40449;SDS011;41787;53.570;10.032;2023-05-07T04:24:02;10.07;;;6.07;;
40449;SDS011;41787;53.570;10.032;2023-05-07T04:26:28;11.40;;;5.60;;
40449;SDS011;41787;53.570;10.032;2023-05-07T04:28:55;9.32;;;6.10;;
40449;SDS011;41787;53.570;10.032;2023-05-07T04:31:22;8.48;;;5.72;;
40449;SDS011;41787;53.570;10.032;2023-05-07T04:33:48;9.55;;;5.47;;
40449;SDS011;41787;53.570;10.032;2023-05-07T04:36:15;11.43;;;5.65;;
40449;SDS011;41787;53.570;10.032;2023-05-07T04:38:41;8.90;;;5.57;;
40449;SDS011;41787;53.570;10.032;2023-05-07T04:41:08;7.32;;;4.35;;
40449;SDS011;41787;53.570;10.032;2023-05-07T04:43:34;11.00;;;5.95;;
40449;SDS011;41787;53.570;10.032;2023-05-07T04:46:00;8.70;;;5.50;;
40449;SDS011;41787;53.570;10.032;2023-05-07T04:48:26;8.50;;;5.30;;
40449;SDS011;41787;53.570;10.032;2023-05-07T04:50:52;8.65;;;5.20;;
40449;SDS011;41787;53.570;10.032;2023-05-07T04:53:19;7.07;;;4.78;;
40449;SDS011;41787;53.570;10.032;2023-05-07T04:55:45;7.57;;;4.80;;
40449;SDS011;41787;53.570;10.032;2023-05-07T04:58:11;9.73;;;5.25;;
40449;SDS011;41787;53.570;10.032;2023-05-07T05:00:37;8.00;;;5.25;;
40449;SDS011;41787;53.570;10.032;2023-05-07T05:03:04;6.47;;;4.72;;
40449;SDS011;41787;53.570;10.032;2023-05-07T05:05:30;8.38;;;5.25;;
40449;SDS011;41787;53.570;10.032;2023-05-07T05:07:56;6.53;;;4.93;;
40449;SDS011;41787;53.570;10.032;2023-05-07T05:10:22;8.25;;;5.00;;
40449;SDS011;41787;53.570;10.032;2023-05-07T05:12:48;8.35;;;5.30;;
40449;SDS011;41787;53.570;10.032;2023-05-07T05:15:14;8.68;;;5.40;;
40449;SDS011;41787;53.570;10.032;2023-05-07T05:17:40;8.48;;;5.70;;
40449;SDS011;41787;53.570;10.032;2023-05-07T05:20:06;8.13;;;5.38;;
40449;SDS011;41787;53.570;10.032;2023-05-07T05:22:34;9.68;;;4.82;;
40449;SDS011;41787;53.570;10.032;2023-05-07T05:25:00;7.72;;;5.43;;
40449;SDS011;41787;53.570;10.032;2023-05-07T05:27:26;8.65;;;5.63;;
40449;SDS011;41787;53.570;10.032;2023-05-07T05:29:55;10.02;;;5.80;;
40449;SDS011;41787;53.570;10.032;2023-05-07T05:32:21;9.25;;;5.25;;
40449;SDS011;41787;53.570;10.032;2023-05-07T05:34:47;8.18;;;5.18;;
40449;SDS011;41787;53.570;10.032;2023-05-07T05:37:13;7.60;;;5.28;;
40449;SDS011;41787;53.570;10.032;2023-05-07T05:39:39;8.43;;;5.65;;
40449;SDS011;41787;53.570;10.032;2023-05-07T05:42:05;10.00;;;5.28;;
40449;SDS011;41787;53.570;10.032;2023-05-07T05:44:30;8.15;;;5.22;;
40449;SDS011;41787;53.570;10.032;2023-05-07T05:46:56;8.43;;;5.82;;
40449;SDS011;41787;53.570;10.032;2023-05-07T05:49:24;8.65;;;5.45;;
40449;SDS011;41787;53.570;10.032;2023-05-07T05:51:50;8.23;;;5.40;;
40449;SDS011;41787;53.570;10.032;2023-05-07T05:54:16;8.10;;;4.93;;
40449;SDS011;41787;53.570;10.032;2023-05-07T05:56:42;9.30;;;5.85;;
40449;SDS011;41787;53.570;10.032;2023-05-07T05:59:08;8.15;;;5.15;;
40449;SDS011;41787;53.570;10.032;2023-05-07T06:01:34;8.77;;;5.28;;
40449;SDS011;41787;53.570;10.032;2023-05-07T06:04:00;9.48;;;5.70;;
40449;SDS011;41787;53.570;10.032;2023-05-07T06:06:25;9.27;;;6.40;;
40449;SDS011;41787;53.570;10.032;2023-05-07T06:08:52;9.25;;;5.97;;
40449;SDS011;41787;53.570;10.032;2023-05-07T06:11:18;8.82;;;5.35;;
40449;SDS011;41787;53.570;10.032;2023-05-07T06:13:44;7.18;;;4.97;;
40449;SDS011;41787;53.570;10.032;2023-05-07T06:16:10;7.35;;;4.70;;
40449;SDS011;41787;53.570;10.032;2023-05-07T06:18:35;6.60;;;4.70;;
40449;SDS011;41787;53.570;10.032;2023-05-07T06:21:02;6.75;;;4.47;;
40449;SDS011;41787;53.570;10.032;2023-05-07T06:23:27;7.32;;;4.95;;
40449;SDS011;41787;53.570;10.032;2023-05-07T06:25:53;11.95;;;5.53;;
40449;SDS011;41787;53.570;10.032;2023-05-07T06:28:19;8.75;;;4.75;;
40449;SDS011;41787;53.570;10.032;2023-05-07T06:30:45;7.63;;;5.43;;
40449;SDS011;41787;53.570;10.032;2023-05-07T06:33:12;6.15;;;4.72;;
40449;SDS011;41787;53.570;10.032;2023-05-07T06:35:38;11.50;;;5.53;;
40449;SDS011;41787;53.570;10.032;2023-05-07T06:38:04;7.90;;;4.95;;
40449;SDS011;41787;53.570;10.032;2023-05-07T06:40:30;9.10;;;5.72;;
40449;SDS011;41787;53.570;10.032;2023-05-07T06:42:56;7.93;;;5.47;;
40449;SDS011;41787;53.570;10.032;2023-05-07T06:45:21;8.38;;;5.05;;
40449;SDS011;41787;53.570;10.032;2023-05-07T06:47:48;8.50;;;5.30;;
40449;SDS011;41787;53.570;10.032;2023-05-07T06:50:14;7.47;;;4.82;;
40449;SDS011;41787;53.570;10.032;2023-05-07T06:52:41;7.28;;;4.72;;
40449;SDS011;41787;53.570;10.032;2023-05-07T06:55:08;7.70;;;4.65;;
40449;SDS011;41787;53.570;10.032;2023-05-07T06:57:34;7.07;;;4.50;;
40449;SDS011;41787;53.570;10.032;2023-05-07T07:00:00;7.47;;;4.43;;
40449;SDS011;41787;53.570;10.032;2023-05-07T07:02:26;6.38;;;4.00;;
40449;SDS011;41787;53.570;10.032;2023-05-07T07:04:52;11.00;;;4.50;;
40449;SDS011;41787;53.570;10.032;2023-05-07T07:07:18;7.20;;;4.45;;
40449;SDS011;41787;53.570;10.032;2023-05-07T07:09:44;9.20;;;4.40;;
40449;SDS011;41787;53.570;10.032;2023-05-07T07:12:10;7.38;;;4.57;;
40449;SDS011;41787;53.570;10.032;2023-05-07T07:14:36;7.13;;;4.38;;
40449;SDS011;41787;53.570;10.032;2023-05-07T07:17:02;6.47;;;4.32;;
40449;SDS011;41787;53.570;10.032;2023-05-07T07:19:30;7.20;;;4.30;;
40449;SDS011;41787;53.570;10.032;2023-05-07T07:21:56;6.38;;;4.15;;
40449;SDS011;41787;53.570;10.032;2023-05-07T07:24:21;8.13;;;4.00;;
40449;SDS011;41787;53.570;10.032;2023-05-07T07:26:47;5.50;;;4.03;;
40449;SDS011;41787;53.570;10.032;2023-05-07T07:29:13;8.35;;;4.15;;
40449;SDS011;41787;53.570;10.032;2023-05-07T07:31:39;5.18;;;3.88;;
40449;SDS011;41787;53.570;10.032;2023-05-07T07:34:05;4.85;;;3.55;;
40449;SDS011;41787;53.570;10.032;2023-05-07T07:36:31;9.73;;;4.28;;
40449;SDS011;41787;53.570;10.032;2023-05-07T07:38:57;5.85;;;4.43;;
40449;SDS011;41787;53.570;10.032;2023-05-07T07:41:23;5.60;;;3.78;;
40449;SDS011;41787;53.570;10.032;2023-05-07T07:43:49;4.85;;;3.45;;
40449;SDS011;41787;53.570;10.032;2023-05-07T07:46:15;6.90;;;3.92;;
40449;SDS011;41787;53.570;10.032;2023-05-07T07:48:41;4.75;;;3.58;;
40449;SDS011;41787;53.570;10.032;2023-05-07T07:51:07;5.00;;;3.70;;
40449;SDS011;41787;53.570;10.032;2023-05-07T07:53:33;6.53;;;4.20;;
40449;SDS011;41787;53.570;10.032;2023-05-07T07:55:59;8.38;;;3.95;;
40449;SDS011;41787;53.570;10.032;2023-05-07T07:58:25;5.20;;;3.65;;
40449;SDS011;41787;53.570;10.032;2023-05-07T08:00:51;5.93;;;3.60;;
40449;SDS011;41787;53.570;10.032;2023-05-07T08:03:17;6.93;;;3.75;;
40449;SDS011;41787;53.570;10.032;2023-05-07T08:05:44;5.38;;;3.63;;
40449;SDS011;41787;53.570;10.032;2023-05-07T08:08:10;7.38;;;3.88;;
40449;SDS011;41787;53.570;10.032;2023-05-07T08:10:36;5.75;;;3.58;;
40449;SDS011;41787;53.570;10.032;2023-05-07T08:13:04;5.57;;;3.20;;
40449;SDS011;41787;53.570;10.032;2023-05-07T08:15:30;4.63;;;3.42;;
40449;SDS011;41787;53.570;10.032;2023-05-07T08:17:56;5.97;;;3.63;;
40449;SDS011;41787;53.570;10.032;2023-05-07T08:20:22;4.88;;;3.50;;
40449;SDS011;41787;53.570;10.032;2023-05-07T08:22:48;7.35;;;3.70;;
40449;SDS011;41787;53.570;10.032;2023-05-07T08:25:14;4.63;;;3.60;;
40449;SDS011;41787;53.570;10.032;2023-05-07T08:27:40;6.63;;;4.15;;
40449;SDS011;41787;53.570;10.032;2023-05-07T08:30:06;5.53;;;3.58;;
40449;SDS011;41787;53.570;10.032;2023-05-07T08:32:32;6.90;;;3.38;;
40449;SDS011;41787;53.570;10.032;2023-05-07T08:34:59;4.53;;;3.90;;
40449;SDS011;41787;53.570;10.032;2023-05-07T08:37:25;11.30;;;4.00;;
40449;SDS011;41787;53.570;10.032;2023-05-07T08:39:51;6.95;;;4.43;;
40449;SDS011;41787;53.570;10.032;2023-05-07T08:42:17;6.90;;;4.43;;
40449;SDS011;41787;53.570;10.032;2023-05-07T08:44:44;7.25;;;4.20;;
40449;SDS011;41787;53.570;10.032;2023-05-07T08:47:13;7.72;;;4.40;;
40449;SDS011;41787;53.570;10.032;2023-05-07T08:49:39;7.55;;;4.68;;
40449;SDS011;41787;53.570;10.032;2023-05-07T08:52:07;6.75;;;4.05;;
40449;SDS011;41787;53.570;10.032;2023-05-07T08:54:33;6.22;;;4.22;;
40449;SDS011;41787;53.570;10.032;2023-05-07T08:56:59;7.80;;;4.13;;
40449;SDS011;41787;53.570;10.032;2023-05-07T08:59:25;7.25;;;4.30;;
40449;SDS011;41787;53.570;10.032;2023-05-07T09:01:51;7.28;;;3.72;;
40449;SDS011;41787;53.570;10.032;2023-05-07T09:04:17;4.95;;;3.63;;
40449;SDS011;41787;53.570;10.032;2023-05-07T09:06:43;8.35;;;3.72;;
40449;SDS011;41787;53.570;10.032;2023-05-07T09:09:09;6.20;;;3.88;;
40449;SDS011;41787;53.570;10.032;2023-05-07T09:11:39;5.28;;;3.67;;
40449;SDS011;41787;53.570;10.032;2023-05-07T09:14:05;4.68;;;3.42;;
40449;SDS011;41787;53.570;10.032;2023-05-07T09:16:31;4.93;;;3.70;;
40449;SDS011;41787;53.570;10.032;2023-05-07T09:19:00;6.05;;;3.55;;
40449;SDS011;41787;53.570;10.032;2023-05-07T09:21:26;6.43;;;3.80;;
40449;SDS011;41787;53.570;10.032;2023-05-07T09:23:53;6.13;;;3.45;;
40449;SDS011;41787;53.570;10.032;2023-05-07T09:26:20;4.88;;;2.78;;
40449;SDS011;41787;53.570;10.032;2023-05-07T09:28:46;4.55;;;3.33;;
40449;SDS011;41787;53.570;10.032;2023-05-07T09:31:12;4.85;;;3.30;;
40449;SDS011;41787;53.570;10.032;2023-05-07T09:33:40;4.63;;;3.42;;
40449;SDS011;41787;53.570;10.032;2023-05-07T09:36:06;6.68;;;3.47;;
40449;SDS011;41787;53.570;10.032;2023-05-07T09:38:33;4.93;;;3.28;;
40449;SDS011;41787;53.570;10.032;2023-05-07T09:41:06;5.07;;;3.53;;
40449;SDS011;41787;53.570;10.032;2023-05-07T09:43:34;4.55;;;2.90;;
40449;SDS011;41787;53.570;10.032;2023-05-07T09:46:03;6.32;;;3.67;;
40449;SDS011;41787;53.570;10.032;2023-05-07T09:48:31;3.88;;;3.13;;
40449;SDS011;41787;53.570;10.032;2023-05-07T09:50:58;5.50;;;3.15;;
40449;SDS011;41787;53.570;10.032;2023-05-07T09:53:27;4.70;;;2.90;;
40449;SDS011;41787;53.570;10.032;2023-05-07T09:55:54;5.43;;;3.50;;
40449;SDS011;41787;53.570;10.032;2023-05-07T09:58:21;5.00;;;3.47;;
40449;SDS011;41787;53.570;10.032;2023-05-07T10:00:48;5.70;;;3.70;;
40449;SDS011;41787;53.570;10.032;2023-05-07T10:03:15;5.90;;;3.50;;
40449;SDS011;41787;53.570;10.032;2023-05-07T10:05:41;5.78;;;3.50;;
40449;SDS011;41787;53.570;10.032;2023-05-07T10:08:09;5.93;;;3.20;;
40449;SDS011;41787;53.570;10.032;2023-05-07T10:10:35;5.25;;;3.35;;
40449;SDS011;41787;53.570;10.032;2023-05-07T10:13:01;6.20;;;3.08;;
40449;SDS011;41787;53.570;10.032;2023-05-07T10:15:30;4.70;;;3.17;;
40449;SDS011;41787;53.570;10.032;2023-05-07T10:17:57;5.05;;;3.25;;
40449;SDS011;41787;53.570;10.032;2023-05-07T10:20:23;5.45;;;3.10;;
40449;SDS011;41787;53.570;10.032;2023-05-07T10:22:49;3.25;;;2.42;;
40449;SDS011;41787;53.570;10.032;2023-05-07T10:25:26;4.95;;;3.55;;
40449;SDS011;41787;53.570;10.032;2023-05-07T10:27:53;5.80;;;3.50;;
40449;SDS011;41787;53.570;10.032;2023-05-07T10:32:47;4.85;;;3.28;;
40449;SDS011;41787;53.570;10.032;2023-05-07T10:35:16;3.72;;;3.05;;
40449;SDS011;41787;53.570;10.032;2023-05-07T10:37:43;3.35;;;2.72;;
40449;SDS011;41787;53.570;10.032;2023-05-07T10:40:09;4.25;;;2.95;;
40449;SDS011;41787;53.570;10.032;2023-05-07T10:42:36;3.58;;;2.78;;
40449;SDS011;41787;53.570;10.032;2023-05-07T10:45:14;6.93;;;3.03;;
40449;SDS011;41787;53.570;10.032;2023-05-07T10:50:46;4.20;;;2.55;;
40449;SDS011;41787;53.570;10.032;2023-05-07T10:55:47;3.58;;;2.63;;
40449;SDS011;41787;53.570;10.032;2023-05-07T10:58:29;4.32;;;2.40;;
40449;SDS011;41787;53.570;10.032;2023-05-07T11:00:59;3.60;;;2.90;;
40449;SDS011;41787;53.570;10.032;2023-05-07T11:11:19;6.47;;;2.67;;
40449;SDS011;41787;53.570;10.032;2023-05-07T11:13:46;2.85;;;2.08;;
40449;SDS011;41787;53.570;10.032;2023-05-07T11:16:16;3.40;;;2.40;;
40449;SDS011;41787;53.570;10.032;2023-05-07T11:18:46;2.45;;;1.95;;
40449;SDS011;41787;53.570;10.032;2023-05-07T11:21:13;2.40;;;2.10;;
40449;SDS011;41787;53.570;10.032;2023-05-07T11:26:09;3.10;;;2.00;;
40449;SDS011;41787;53.570;10.032;2023-05-07T11:28:42;4.65;;;2.80;;
40449;SDS011;41787;53.570;10.032;2023-05-07T11:31:09;2.42;;;2.00;;
40449;SDS011;41787;53.570;10.032;2023-05-07T11:33:35;4.78;;;2.88;;
40449;SDS011;41787;53.570;10.032;2023-05-07T11:36:02;8.73;;;2.50;;
40449;SDS011;41787;53.570;10.032;2023-05-07T11:38:28;2.53;;;2.00;;
40449;SDS011;41787;53.570;10.032;2023-05-07T11:40:56;3.83;;;2.25;;
40449;SDS011;41787;53.570;10.032;2023-05-07T11:43:26;3.53;;;2.17;;
40449;SDS011;41787;53.570;10.032;2023-05-07T11:45:52;2.83;;;2.08;;
40449;SDS011;41787;53.570;10.032;2023-05-07T11:48:18;5.32;;;2.40;;
40449;SDS011;41787;53.570;10.032;2023-05-07T11:50:50;2.97;;;2.30;;
40449;SDS011;41787;53.570;10.032;2023-05-07T11:53:16;2.45;;;1.80;;
40449;SDS011;41787;53.570;10.032;2023-05-07T11:55:43;2.60;;;1.77;;
40449;SDS011;41787;53.570;10.032;2023-05-07T11:58:18;2.90;;;2.05;;
40449;SDS011;41787;53.570;10.032;2023-05-07T12:00:49;3.72;;;1.83;;
40449;SDS011;41787;53.570;10.032;2023-05-07T12:03:15;2.55;;;2.03;;
40449;SDS011;41787;53.570;10.032;2023-05-07T12:05:42;3.75;;;2.10;;
40449;SDS011;41787;53.570;10.032;2023-05-07T12:08:08;4.55;;;2.10;;
40449;SDS011;41787;53.570;10.032;2023-05-07T12:10:34;3.58;;;1.52;;
40449;SDS011;41787;53.570;10.032;2023-05-07T12:13:00;2.60;;;1.98;;
40449;SDS011;41787;53.570;10.032;2023-05-07T12:15:26;2.50;;;1.85;;
40449;SDS011;41787;53.570;10.032;2023-05-07T12:17:53;2.08;;;1.67;;
40449;SDS011;41787;53.570;10.032;2023-05-07T12:20:19;2.30;;;1.73;;
40449;SDS011;41787;53.570;10.032;2023-05-07T12:22:45;2.00;;;1.45;;
40449;SDS011;41787;53.570;10.032;2023-05-07T12:25:12;7.22;;;2.10;;
40449;SDS011;41787;53.570;10.032;2023-05-07T12:27:40;4.47;;;1.85;;
40449;SDS011;41787;53.570;10.032;2023-05-07T12:30:06;4.40;;;2.03;;
40449;SDS011;41787;53.570;10.032;2023-05-07T12:32:32;3.13;;;2.33;;
40449;SDS011;41787;53.570;10.032;2023-05-07T12:35:01;2.45;;;1.63;;
40449;SDS011;41787;53.570;10.032;2023-05-07T12:37:27;3.25;;;1.95;;
40449;SDS011;41787;53.570;10.032;2023-05-07T12:42:33;2.42;;;1.73;;
40449;SDS011;41787;53.570;10.032;2023-05-07T12:45:07;2.88;;;1.73;;
40449;SDS011;41787;53.570;10.032;2023-05-07T12:47:33;3.10;;;1.60;;
40449;SDS011;41787;53.570;10.032;2023-05-07T12:49:59;1.75;;;1.27;;
40449;SDS011;41787;53.570;10.032;2023-05-07T12:52:25;2.75;;;1.92;;
40449;SDS011;41787;53.570;10.032;2023-05-07T12:54:51;5.03;;;2.10;;
40449;SDS011;41787;53.570;10.032;2023-05-07T12:57:18;3.22;;;1.90;;
40449;SDS011;41787;53.570;10.032;2023-05-07T12:59:45;3.28;;;1.50;;
40449;SDS011;41787;53.570;10.032;2023-05-07T13:02:11;2.75;;;1.88;;
40449;SDS011;41787;53.570;10.032;2023-05-07T13:04:37;2.05;;;1.45;;
40449;SDS011;41787;53.570;10.032;2023-05-07T13:07:03;2.22;;;1.40;;
40449;SDS011;41787;53.570;10.032;2023-05-07T13:09:29;1.92;;;1.52;;
40449;SDS011;41787;53.570;10.032;2023-05-07T13:11:56;3.00;;;1.60;;
40449;SDS011;41787;53.570;10.032;2023-05-07T13:14:26;2.92;;;1.60;;
40449;SDS011;41787;53.570;10.032;2023-05-07T13:16:52;4.35;;;1.92;;
40449;SDS011;41787;53.570;10.032;2023-05-07T13:19:18;4.35;;;2.22;;
40449;SDS011;41787;53.570;10.032;2023-05-07T13:21:44;1.83;;;1.40;;
40449;SDS011;41787;53.570;10.032;2023-05-07T13:24:09;2.60;;;1.77;;
40449;SDS011;41787;53.570;10.032;2023-05-07T13:26:35;3.22;;;1.40;;
40449;SDS011;41787;53.570;10.032;2023-05-07T13:29:01;2.67;;;1.10;;
40449;SDS011;41787;53.570;10.032;2023-05-07T13:31:27;1.73;;;1.20;;
40449;SDS011;41787;53.570;10.032;2023-05-07T13:33:53;3.08;;;1.70;;
40449;SDS011;41787;53.570;10.032;2023-05-07T13:36:21;1.92;;;1.50;;
40449;SDS011;41787;53.570;10.032;2023-05-07T13:38:47;4.10;;;1.27;;
40449;SDS011;41787;53.570;10.032;2023-05-07T13:41:13;1.73;;;1.15;;
40449;SDS011;41787;53.570;10.032;2023-05-07T13:43:39;3.70;;;1.25;;
40449;SDS011;41787;53.570;10.032;2023-05-07T13:46:05;3.03;;;1.30;;
40449;SDS011;41787;53.570;10.032;2023-05-07T13:48:31;6.15;;;1.35;;
40449;SDS011;41787;53.570;10.032;2023-05-07T13:50:57;2.55;;;1.35;;
40449;SDS011;41787;53.570;10.032;2023-05-07T13:53:23;1.85;;;1.40;;
40449;SDS011;41787;53.570;10.032;2023-05-07T13:55:49;2.70;;;1.10;;
40449;SDS011;41787;53.570;10.032;2023-05-07T13:58:15;2.20;;;1.45;;
40449;SDS011;41787;53.570;10.032;2023-05-07T14:00:41;6.30;;;1.50;;
40449;SDS011;41787;53.570;10.032;2023-05-07T14:03:07;1.88;;;1.20;;
40449;SDS011;41787;53.570;10.032;2023-05-07T14:05:33;1.35;;;1.10;;
40449;SDS011;41787;53.570;10.032;2023-05-07T14:08:00;3.05;;;1.35;;
40449;SDS011;41787;53.570;10.032;2023-05-07T14:10:25;1.27;;;1.02;;
40449;SDS011;41787;53.570;10.032;2023-05-07T14:12:51;3.63;;;1.15;;
40449;SDS011;41787;53.570;10.032;2023-05-07T14:15:17;3.05;;;1.10;;
40449;SDS011;41787;53.570;10.032;2023-05-07T14:17:43;1.50;;;1.10;;
40449;SDS011;41787;53.570;10.032;2023-05-07T14:20:10;2.20;;;1.02;;
40449;SDS011;41787;53.570;10.032;2023-05-07T14:22:36;2.17;;;1.58;;
40449;SDS011;41787;53.570;10.032;2023-05-07T14:25:02;3.78;;;1.35;;
40449;SDS011;41787;53.570;10.032;2023-05-07T14:27:28;2.75;;;1.30;;
40449;SDS011;41787;53.570;10.032;2023-05-07T14:29:54;7.00;;;1.25;;
40449;SDS011;41787;53.570;10.032;2023-05-07T14:32:21;3.00;;;2.22;;
40449;SDS011;41787;53.570;10.032;2023-05-07T14:34:50;3.20;;;1.52;;
40449;SDS011;41787;53.570;10.032;2023-05-07T14:37:16;1.70;;;1.17;;
40449;SDS011;41787;53.570;10.032;2023-05-07T14:39:44;2.28;;;1.10;;
40449;SDS011;41787;53.570;10.032;2023-05-07T14:42:10;2.17;;;1.27;;
40449;SDS011;41787;53.570;10.032;2023-05-07T14:44:37;2.90;;;1.30;;
40449;SDS011;41787;53.570;10.032;2023-05-07T14:47:05;3.95;;;1.30;;
40449;SDS011;41787;53.570;10.032;2023-05-07T14:49:39;4.03;;;1.08;;
40449;SDS011;41787;53.570;10.032;2023-05-07T14:52:06;1.63;;;0.90;;